Time;durP1;ratioP1;P1;durP2;ratioP2;P2;SDS_P1;SDS_P2;PMS_P1;PMS_P2;Temp;Humidity;BMP_temperature;BMP_pressure;BME280_temperature;BME280_humidity;BME280_pressure;Samples;Min_cycle;Max_cycle;Signal;HPM_P1;HPM_P2
2021/08/09 00:04:38;;;;;;;;;;;;;;;;;;;;;
2021/08/09 04:33:21;;;;;;;16.83;5.82;;;;;;;;;;4958020;28;20078;-61
2021/08/09 04:35:49;;;;;;;19.65;5.57;;;;;;;;;;4960677;28;20121;-63
2021/08/09 04:38:14;;;;;;;28.55;5.68;;;;;;;;;;4961490;28;20068;-62
2021/08/09 04:40:40;;;;;;;30.10;6.45;;;;;;;;;;4962582;28;20038;-62
2021/08/09 04:43:08;;;;;;;26.25;4.88;;;;;;;;;;4944804;28;20675;-61
2021/08/09 04:45:36;;;;;;;20.52;4.18;;;;;;;;;;4962654;28;20118;-62
2021/08/09 04:48:04;;;;;;;25.30;5.80;;;;;;;;;;4945980;28;20498;-62
2021/08/09 04:50:30;;;;;;;16.02;4.15;;;;;;;;;;4963601;28;20034;-62
2021/08/09 04:52:58;;;;;;;37.40;4.90;;;;;;;;;;4944457;28;20053;-62
2021/08/09 04:55:27;;;;;;;23.17;4.65;;;;;;;;;;4961284;28;21214;-63
2021/08/09 04:57:52;;;;;;;18.83;3.95;;;;;;;;;;4958357;28;20110;-62
2021/08/09 05:00:20;;;;;;;16.00;4.05;;;;;;;;;;4977868;28;20161;-62
2021/08/09 05:02:46;;;;;;;11.38;4.15;;;;;;;;;;4961725;28;20026;-62
2021/08/09 05:05:12;;;;;;;15.13;4.60;;;;;;;;;;4963551;28;20484;-62
2021/08/09 05:07:40;;;;;;;15.75;4.00;;;;;;;;;;4962494;28;20046;-62
2021/08/09 05:10:07;;;;;;;21.52;4.43;;;;;;;;;;4961446;28;20026;-62
2021/08/09 05:12:32;;;;;;;21.25;4.65;;;;;;;;;;4962664;28;21971;-63
2021/08/09 05:14:58;;;;;;;13.63;4.10;;;;;;;;;;4948308;28;20520;-62
2021/08/09 05:17:24;;;;;;;30.25;5.05;;;;;;;;;;4980588;28;20050;-62
2021/08/09 05:19:52;;;;;;;13.85;3.95;;;;;;;;;;4996295;28;20057;-61
2021/08/09 05:22:17;;;;;;;18.35;4.07;;;;;;;;;;4982030;28;20026;-60
2021/08/09 05:24:45;;;;;;;11.32;3.85;;;;;;;;;;4996547;28;20065;-62
2021/08/09 05:27:13;;;;;;;18.30;4.45;;;;;;;;;;4978961;28;20030;-63
2021/08/09 05:29:38;;;;;;;17.70;4.10;;;;;;;;;;4997546;28;20104;-61
2021/08/09 05:32:04;;;;;;;25.17;4.55;;;;;;;;;;4995717;28;20070;-61
2021/08/09 05:34:31;;;;;;;12.65;3.92;;;;;;;;;;4980207;28;20180;-61
2021/08/09 05:36:59;;;;;;;24.85;3.92;;;;;;;;;;4947818;28;20076;-62
2021/08/09 05:39:26;;;;;;;28.23;4.03;;;;;;;;;;4978444;28;20812;-62
2021/08/09 05:41:54;;;;;;;26.67;4.78;;;;;;;;;;4994033;28;20163;-62
2021/08/09 05:44:20;;;;;;;18.48;4.68;;;;;;;;;;4981343;28;20257;-61
2021/08/09 05:46:51;;;;;;;23.55;4.18;;;;;;;;;;4993585;28;20636;-60
2021/08/09 05:49:18;;;;;;;18.45;3.17;;;;;;;;;;4996226;28;20053;-60
2021/08/09 05:51:46;;;;;;;21.27;3.53;;;;;;;;;;4980192;28;20034;-60
2021/08/09 05:54:11;;;;;;;31.20;4.35;;;;;;;;;;4979543;28;20046;-60
2021/08/09 05:56:40;;;;;;;20.55;3.53;;;;;;;;;;4980418;28;20444;-61
2021/08/09 05:59:06;;;;;;;13.50;3.47;;;;;;;;;;4979571;28;20088;-62
2021/08/09 06:01:31;;;;;;;26.55;4.40;;;;;;;;;;4981428;28;20034;-60
2021/08/09 06:04:00;;;;;;;20.05;3.70;;;;;;;;;;4995403;28;20030;-61
2021/08/09 06:06:27;;;;;;;11.90;3.72;;;;;;;;;;4993005;28;20034;-59
2021/08/09 06:08:53;;;;;;;16.73;3.50;;;;;;;;;;4978646;28;20385;-61
2021/08/09 06:11:21;;;;;;;14.52;3.35;;;;;;;;;;4993731;28;20057;-61
2021/08/09 06:13:47;;;;;;;21.38;4.05;;;;;;;;;;4978517;28;20034;-61
2021/08/09 06:19:16;;;;;;;18.52;3.95;;;;;;;;;;4977480;28;20045;-61
2021/08/09 06:21:42;;;;;;;20.98;3.40;;;;;;;;;;4978527;28;20072;-61
2021/08/09 06:24:09;;;;;;;12.02;3.38;;;;;;;;;;4975660;28;22054;-61
2021/08/09 06:26:37;;;;;;;16.40;3.53;;;;;;;;;;4977243;28;20030;-61
2021/08/09 06:29:12;;;;;;;12.13;3.42;;;;;;;;;;4992378;28;20120;-61
2021/08/09 06:31:37;;;;;;;11.88;2.63;;;;;;;;;;4994308;28;21687;-62
2021/08/09 06:34:03;;;;;;;13.93;2.70;;;;;;;;;;4962522;28;20065;-62
2021/08/09 06:36:30;;;;;;;14.77;2.80;;;;;;;;;;4994410;28;20045;-61
2021/08/09 06:39:01;;;;;;;19.95;3.17;;;;;;;;;;4979305;28;20033;-62
2021/08/09 06:41:31;;;;;;;14.35;3.00;;;;;;;;;;4979738;28;20026;-62
2021/08/09 06:43:59;;;;;;;11.82;2.80;;;;;;;;;;4995565;28;20042;-62
2021/08/09 06:46:30;;;;;;;14.48;3.05;;;;;;;;;;4978226;28;20050;-62
2021/08/09 06:48:55;;;;;;;12.85;2.80;;;;;;;;;;4977231;28;20038;-62
2021/08/09 06:51:21;;;;;;;14.65;3.08;;;;;;;;;;4977608;28;20045;-63
2021/08/09 06:53:46;;;;;;;11.65;2.55;;;;;;;;;;4977540;28;20033;-63
2021/08/09 06:56:15;;;;;;;10.48;2.38;;;;;;;;;;4978638;28;21955;-64
2021/08/09 06:58:41;;;;;;;13.15;2.53;;;;;;;;;;4994653;28;20033;-64
2021/08/09 07:01:09;;;;;;;13.43;2.40;;;;;;;;;;4994562;28;20041;-65
2021/08/09 07:03:34;;;;;;;21.95;2.97;;;;;;;;;;4979698;28;20413;-64
2021/08/09 07:06:03;;;;;;;15.77;2.97;;;;;;;;;;4977621;28;20064;-63
2021/08/09 07:08:28;;;;;;;9.73;2.17;;;;;;;;;;4976700;28;20042;-65
2021/08/09 07:10:54;;;;;;;13.20;2.65;;;;;;;;;;4994719;28;20042;-66
2021/08/09 07:13:20;;;;;;;7.63;2.10;;;;;;;;;;4993592;28;20049;-63
2021/08/09 07:15:45;;;;;;;14.65;2.20;;;;;;;;;;4976718;28;20033;-64
2021/08/09 07:18:13;;;;;;;14.18;2.47;;;;;;;;;;4994049;28;20034;-63
2021/08/09 07:20:38;;;;;;;13.23;2.50;;;;;;;;;;4992987;28;20037;-64
2021/08/09 07:23:05;;;;;;;14.48;2.58;;;;;;;;;;4975773;28;20151;-64
2021/08/09 07:25:32;;;;;;;9.27;2.50;;;;;;;;;;4993821;28;20021;-66
2021/08/09 07:28:02;;;;;;;21.05;2.72;;;;;;;;;;4976457;28;20037;-66
2021/08/09 07:30:59;;;;;;;10.70;2.35;;;;;;;;;;4992943;28;20029;-66
2021/08/09 07:33:27;;;;;;;12.73;2.50;;;;;;;;;;4958048;28;20038;-68
2021/08/09 07:35:55;;;;;;;16.58;3.33;;;;;;;;;;4958074;28;20069;-66
2021/08/09 07:38:20;;;;;;;14.00;2.53;;;;;;;;;;4957470;28;20776;-66
2021/08/09 07:40:46;;;;;;;12.60;3.03;;;;;;;;;;4957451;28;20865;-65
2021/08/09 07:43:15;;;;;;;11.57;2.10;;;;;;;;;;4978722;28;20072;-66
2021/08/09 07:45:40;;;;;;;8.82;2.40;;;;;;;;;;4943264;28;20931;-67
2021/08/09 07:48:06;;;;;;;10.32;3.25;;;;;;;;;;4972666;28;20096;-65
2021/08/09 07:50:38;;;;;;;12.05;2.75;;;;;;;;;;4963030;28;20030;-67
2021/08/09 07:53:07;;;;;;;16.83;3.42;;;;;;;;;;4957430;28;20739;-67
2021/08/09 07:55:32;;;;;;;15.35;2.63;;;;;;;;;;4957210;28;20292;-69
2021/08/09 07:58:03;;;;;;;16.17;3.17;;;;;;;;;;4972107;28;20058;-69
2021/08/09 08:00:31;;;;;;;10.65;2.50;;;;;;;;;;4987641;28;20070;-69
2021/08/09 08:02:57;;;;;;;12.93;2.95;;;;;;;;;;4975006;28;20180;-68
2021/08/09 08:05:22;;;;;;;19.17;3.22;;;;;;;;;;4958152;28;20483;-68
2021/08/09 08:07:50;;;;;;;12.07;2.78;;;;;;;;;;4959225;28;20038;-67
2021/08/09 08:10:16;;;;;;;17.27;2.83;;;;;;;;;;4962871;28;20153;-67
2021/08/09 08:12:44;;;;;;;14.18;3.03;;;;;;;;;;4961139;28;20019;-68
2021/08/09 08:15:12;;;;;;;11.82;2.90;;;;;;;;;;4978141;28;20704;-65
2021/08/09 08:17:37;;;;;;;13.07;3.05;;;;;;;;;;4960914;28;20050;-67
2021/08/09 08:20:04;;;;;;;13.27;3.28;;;;;;;;;;4963943;28;20034;-66
2021/08/09 08:22:29;;;;;;;17.40;2.92;;;;;;;;;;4960787;28;20026;-67
2021/08/09 08:24:55;;;;;;;16.80;3.30;;;;;;;;;;4962217;28;20513;-66
2021/08/09 08:27:21;;;;;;;13.65;2.95;;;;;;;;;;4961520;28;20039;-66
2021/08/09 08:29:47;;;;;;;13.75;2.50;;;;;;;;;;4943990;28;20026;-66
2021/08/09 08:32:14;;;;;;;10.18;2.83;;;;;;;;;;4988770;28;20869;-66
2021/08/09 08:34:40;;;;;;;17.25;2.95;;;;;;;;;;4984217;28;20108;-65
2021/08/09 08:37:08;;;;;;;12.32;2.83;;;;;;;;;;4983172;28;20417;-64
2021/08/09 08:39:35;;;;;;;12.70;3.40;;;;;;;;;;4982016;28;20041;-67
2021/08/09 08:42:03;;;;;;;8.93;2.47;;;;;;;;;;4997973;28;20034;-66
2021/08/09 08:44:31;;;;;;;16.48;3.30;;;;;;;;;;4969219;28;20125;-66
2021/08/09 08:46:59;;;;;;;16.23;3.00;;;;;;;;;;4964367;28;20031;-65
2021/08/09 08:49:27;;;;;;;9.73;2.20;;;;;;;;;;4980578;28;20038;-66
2021/08/09 08:51:55;;;;;;;17.45;3.33;;;;;;;;;;4997987;28;20125;-66
2021/08/09 08:54:21;;;;;;;10.80;2.70;;;;;;;;;;4979561;28;20699;-65
2021/08/09 08:56:47;;;;;;;16.75;3.28;;;;;;;;;;4981327;28;22042;-66
2021/08/09 08:59:18;;;;;;;10.63;2.45;;;;;;;;;;4979921;28;20148;-66
2021/08/09 09:01:47;;;;;;;11.35;2.67;;;;;;;;;;4984931;28;20154;-68
2021/08/09 09:04:31;;;;;;;10.02;2.05;;;;;;;;;;4983561;28;20116;-66
2021/08/09 09:07:01;;;;;;;12.70;2.42;;;;;;;;;;4979941;28;20041;-66
2021/08/09 09:09:28;;;;;;;9.25;2.05;;;;;;;;;;4994685;28;20489;-65
2021/08/09 09:11:57;;;;;;;14.80;2.60;;;;;;;;;;4981717;28;20022;-67
2021/08/09 09:17:57;;;;;;;12.30;2.58;;;;;;;;;;4980107;28;20037;-65
2021/08/09 09:20:24;;;;;;;11.35;2.55;;;;;;;;;;4965385;28;20042;-64
2021/08/09 09:22:50;;;;;;;4.78;1.58;;;;;;;;;;4979775;28;20107;-64
2021/08/09 09:25:29;;;;;;;12.02;1.90;;;;;;;;;;4997700;28;20034;-66
2021/08/09 09:28:00;;;;;;;8.23;1.63;;;;;;;;;;4996342;28;20022;-66
2021/08/09 09:34:08;;;;;;;6.65;1.50;;;;;;;;;;5000345;28;20610;-64
2021/08/09 09:36:46;;;;;;;14.52;2.10;;;;;;;;;;5002225;28;20084;-66
2021/08/09 09:39:32;;;;;;;16.70;2.22;;;;;;;;;;4999368;28;22023;-65
2021/08/09 09:42:01;;;;;;;11.45;2.28;;;;;;;;;;4983170;28;20136;-65
2021/08/09 09:44:28;;;;;;;10.55;2.05;;;;;;;;;;4998570;28;21239;-66
2021/08/09 09:47:13;;;;;;;9.38;1.77;;;;;;;;;;5001228;28;20045;-65
2021/08/09 09:49:42;;;;;;;9.05;1.75;;;;;;;;;;4999012;28;21836;-66
2021/08/09 09:52:08;;;;;;;7.18;1.58;;;;;;;;;;5001532;28;20444;-65
2021/08/09 09:54:34;;;;;;;7.55;1.40;;;;;;;;;;4981907;28;20033;-63
2021/08/09 09:57:00;;;;;;;8.75;1.90;;;;;;;;;;5000008;28;20588;-64
2021/08/09 09:59:27;;;;;;;4.20;1.50;;;;;;;;;;5000345;28;21966;-65
2021/08/09 10:01:52;;;;;;;11.57;1.83;;;;;;;;;;4997349;28;20052;-65
2021/08/09 10:04:18;;;;;;;6.50;1.58;;;;;;;;;;4995855;28;20038;-65
2021/08/09 10:06:44;;;;;;;6.75;1.50;;;;;;;;;;4983848;28;20036;-66
2021/08/09 10:09:10;;;;;;;13.95;2.10;;;;;;;;;;4999760;28;20042;-61
2021/08/09 10:11:41;;;;;;;3.83;1.42;;;;;;;;;;4987659;28;20037;-65
2021/08/09 10:14:09;;;;;;;7.75;1.83;;;;;;;;;;4999148;28;20045;-65
2021/08/09 10:16:40;;;;;;;5.47;1.33;;;;;;;;;;4997924;28;20041;-64
2021/08/09 10:19:06;;;;;;;4.35;1.25;;;;;;;;;;4998971;28;20044;-64
2021/08/09 10:21:34;;;;;;;7.72;1.45;;;;;;;;;;4987186;28;20460;-64
2021/08/09 10:24:00;;;;;;;6.75;1.38;;;;;;;;;;4995075;28;20033;-65
2021/08/09 10:26:45;;;;;;;7.03;1.05;;;;;;;;;;5000093;28;20028;-64
2021/08/09 10:29:12;;;;;;;5.47;1.02;;;;;;;;;;4987118;28;20029;-64
2021/08/09 10:31:41;;;;;;;3.33;1.10;;;;;;;;;;4997179;28;20073;-65
2021/08/09 10:34:29;;;;;;;7.63;1.13;;;;;;;;;;4999741;28;20041;-64
2021/08/09 10:37:14;;;;;;;9.43;1.17;;;;;;;;;;4999335;28;20099;-65
2021/08/09 10:39:53;;;;;;;4.97;1.17;;;;;;;;;;4998064;28;20037;-64
2021/08/09 10:42:51;;;;;;;4.38;0.93;;;;;;;;;;4981678;28;20068;-65
2021/08/09 10:45:48;;;;;;;3.65;1.45;;;;;;;;;;4966453;28;20037;-64
2021/08/09 10:48:14;;;;;;;4.20;0.82;;;;;;;;;;4963302;28;20076;-64
2021/08/09 10:50:40;;;;;;;3.03;0.75;;;;;;;;;;4980205;28;20045;-63
2021/08/09 10:53:24;;;;;;;4.68;1.00;;;;;;;;;;4997736;28;20030;-63
2021/08/09 10:55:56;;;;;;;3.72;0.98;;;;;;;;;;4996809;28;20134;-63
2021/08/09 10:58:40;;;;;;;2.85;0.90;;;;;;;;;;4992406;28;20038;-64
2021/08/09 11:01:05;;;;;;;5.43;1.38;;;;;;;;;;4991634;28;20038;-63
2021/08/09 11:03:31;;;;;;;5.25;1.40;;;;;;;;;;4974764;28;20026;-64
2021/08/09 11:05:57;;;;;;;6.95;1.17;;;;;;;;;;4970210;28;20038;-63
2021/08/09 11:08:24;;;;;;;6.15;1.30;;;;;;;;;;4987489;28;20030;-63
2021/08/09 11:10:56;;;;;;;1.77;0.90;;;;;;;;;;4997598;28;20041;-62
2021/08/09 11:13:22;;;;;;;3.08;1.10;;;;;;;;;;4998219;28;20041;-63
2021/08/09 11:15:54;;;;;;;11.35;2.25;;;;;;;;;;4998663;28;20109;-64
2021/08/09 11:18:20;;;;;;;7.70;1.50;;;;;;;;;;4996873;28;20100;-65
2021/08/09 11:20:46;;;;;;;7.80;1.40;;;;;;;;;;4998687;28;20440;-62
2021/08/09 11:23:13;;;;;;;3.58;1.23;;;;;;;;;;4995873;28;20088;-66
2021/08/09 11:25:50;;;;;;;4.65;1.10;;;;;;;;;;4997789;28;20109;-63
2021/08/09 11:28:23;;;;;;;7.57;1.27;;;;;;;;;;4981232;28;20505;-63
2021/08/09 11:30:57;;;;;;;4.32;0.80;;;;;;;;;;4999527;28;20113;-63
2021/08/09 11:33:40;;;;;;;3.17;1.02;;;;;;;;;;5000613;28;20068;-62
2021/08/09 11:36:08;;;;;;;5.32;1.20;;;;;;;;;;4998213;28;20109;-64
2021/08/09 11:39:01;;;;;;;1.13;0.65;;;;;;;;;;4998589;28;20045;-62
2021/08/09 11:41:28;;;;;;;5.93;0.90;;;;;;;;;;4995964;28;20057;-64
2021/08/09 11:44:05;;;;;;;8.25;1.00;;;;;;;;;;4977441;28;20396;-64
2021/08/09 11:46:48;;;;;;;5.07;0.70;;;;;;;;;;4985876;28;20037;-62
2021/08/09 11:49:17;;;;;;;6.32;1.13;;;;;;;;;;4991243;28;20367;-64
2021/08/09 11:51:42;;;;;;;1.77;0.70;;;;;;;;;;4993696;28;20099;-64
2021/08/09 11:54:08;;;;;;;3.42;0.80;;;;;;;;;;4998592;28;20041;-65
2021/08/09 11:56:34;;;;;;;3.92;1.00;;;;;;;;;;5001456;28;20064;-64
2021/08/09 11:59:09;;;;;;;2.17;0.80;;;;;;;;;;4986140;28;20124;-65
2021/08/09 12:01:37;;;;;;;2.75;0.95;;;;;;;;;;4986130;28;20592;-65
2021/08/09 12:04:08;;;;;;;3.88;0.65;;;;;;;;;;5004802;28;20030;-65
2021/08/09 12:06:49;;;;;;;1.85;0.50;;;;;;;;;;4972825;28;20034;-63
2021/08/09 12:09:23;;;;;;;2.22;0.77;;;;;;;;;;4992283;28;21061;-65
2021/08/09 12:11:49;;;;;;;;;;;;;;;;;;4994632;28;20431;-65
2021/08/09 12:14:14;;;;;;;3.25;1.00;;;;;;;;;;4991669;28;19940;-64
2021/08/09 12:16:50;;;;;;;2.00;0.80;;;;;;;;;;4975516;28;20032;-64
2021/08/09 12:19:18;;;;;;;3.47;0.77;;;;;;;;;;4998345;28;20038;-65
2021/08/09 12:21:44;;;;;;;5.88;0.77;;;;;;;;;;4977487;28;20076;-65
2021/08/09 12:24:14;;;;;;;5.10;1.20;;;;;;;;;;4992454;28;20763;-64
2021/08/09 12:26:42;;;;;;;6.22;1.25;;;;;;;;;;4996259;28;20061;-64
2021/08/09 12:29:17;;;;;;;2.70;0.90;;;;;;;;;;4994775;28;20106;-65
2021/08/09 12:31:46;;;;;;;3.40;0.77;;;;;;;;;;4996538;28;20035;-64
2021/08/09 12:34:13;;;;;;;4.90;1.00;;;;;;;;;;4940609;28;20051;-64
2021/08/09 12:36:39;;;;;;;4.93;1.10;;;;;;;;;;4953179;28;20034;-64
2021/08/09 12:39:06;;;;;;;3.70;1.05;;;;;;;;;;4968570;28;20027;-64
2021/08/09 12:41:32;;;;;;;4.60;1.27;;;;;;;;;;4967269;28;20038;-64
2021/08/09 12:43:59;;;;;;;2.72;1.05;;;;;;;;;;4968959;28;20135;-65
2021/08/09 12:46:25;;;;;;;3.72;0.98;;;;;;;;;;4953802;28;20080;-64
2021/08/09 12:48:53;;;;;;;4.88;1.02;;;;;;;;;;4953550;28;20034;-64
2021/08/09 12:51:19;;;;;;;3.55;0.90;;;;;;;;;;4966015;28;20037;-65
2021/08/09 12:53:45;;;;;;;4.13;0.98;;;;;;;;;;4955782;28;20769;-64
2021/08/09 12:56:11;;;;;;;2.88;0.75;;;;;;;;;;4961578;28;20034;-64
2021/08/09 12:58:40;;;;;;;3.97;0.90;;;;;;;;;;4962928;28;20061;-63
2021/08/09 13:01:08;;;;;;;8.05;1.30;;;;;;;;;;4962176;28;20042;-63
2021/08/09 13:03:36;;;;;;;3.22;1.00;;;;;;;;;;4976501;28;20313;-64
2021/08/09 13:06:02;;;;;;;3.30;0.90;;;;;;;;;;4943151;28;20524;-64
2021/08/09 13:08:29;;;;;;;3.63;0.85;;;;;;;;;;4961617;28;20037;-64
2021/08/09 13:10:56;;;;;;;6.03;1.27;;;;;;;;;;4966896;28;20026;-64
2021/08/09 13:13:22;;;;;;;4.22;0.75;;;;;;;;;;4964855;28;20125;-64
2021/08/09 13:15:50;;;;;;;4.20;0.90;;;;;;;;;;4974860;28;20026;-65
2021/08/09 13:18:15;;;;;;;3.78;1.00;;;;;;;;;;4977187;28;20133;-65
2021/08/09 13:20:41;;;;;;;4.05;1.17;;;;;;;;;;4957947;28;20105;-62
2021/08/09 13:23:09;;;;;;;4.25;1.42;;;;;;;;;;4958975;28;20027;-63
2021/08/09 13:25:37;;;;;;;4.07;1.13;;;;;;;;;;4959415;28;20029;-63
2021/08/09 13:28:05;;;;;;;5.70;1.30;;;;;;;;;;4962618;28;20146;-63
2021/08/09 13:30:31;;;;;;;5.20;1.27;;;;;;;;;;4975490;28;20046;-63
2021/08/09 13:32:59;;;;;;;6.43;1.38;;;;;;;;;;4980166;28;20045;-63
2021/08/09 13:35:25;;;;;;;8.90;1.67;;;;;;;;;;4999657;28;20052;-62
2021/08/09 13:37:53;;;;;;;6.85;1.58;;;;;;;;;;4995921;28;20604;-62
2021/08/09 13:40:18;;;;;;;7.60;1.58;;;;;;;;;;4999924;28;20036;-61
2021/08/09 13:42:46;;;;;;;4.20;1.60;;;;;;;;;;4983520;28;20828;-61
2021/08/09 13:45:14;;;;;;;4.38;1.40;;;;;;;;;;4983019;28;20094;-61
2021/08/09 13:47:40;;;;;;;6.28;2.03;;;;;;;;;;4981276;28;20353;-62
2021/08/09 13:50:05;;;;;;;6.15;1.50;;;;;;;;;;4982694;28;20792;-62
2021/08/09 13:52:33;;;;;;;4.97;1.40;;;;;;;;;;4996309;28;20029;-62
2021/08/09 13:54:59;;;;;;;3.03;1.27;;;;;;;;;;4981979;28;20041;-61
2021/08/09 13:57:24;;;;;;;2.78;1.05;;;;;;;;;;5000403;28;20541;-62
2021/08/09 13:59:51;;;;;;;4.13;1.08;;;;;;;;;;4999556;28;20141;-62
2021/08/09 14:02:19;;;;;;;8.27;1.35;;;;;;;;;;5000769;28;20043;-61
2021/08/09 14:04:45;;;;;;;3.70;1.23;;;;;;;;;;4999037;28;20041;-63
2021/08/09 14:07:12;;;;;;;2.83;0.93;;;;;;;;;;4998302;28;20033;-62
2021/08/09 14:09:40;;;;;;;4.82;0.80;;;;;;;;;;4980617;28;20087;-63
2021/08/09 14:12:06;;;;;;;1.70;1.00;;;;;;;;;;4996063;28;20033;-64
2021/08/09 14:14:31;;;;;;;3.28;0.80;;;;;;;;;;4998098;28;20160;-63
2021/08/09 14:17:02;;;;;;;6.35;0.63;;;;;;;;;;4997957;28;20045;-63
2021/08/09 14:19:30;;;;;;;2.28;0.85;;;;;;;;;;4978383;28;20160;-63
2021/08/09 14:21:58;;;;;;;7.45;0.60;;;;;;;;;;4981613;28;20037;-62
2021/08/09 14:24:29;;;;;;;2.08;0.70;;;;;;;;;;4998254;28;20033;-62
2021/08/09 14:26:55;;;;;;;1.63;0.70;;;;;;;;;;4965706;28;20045;-62
2021/08/09 14:29:21;;;;;;;1.30;0.60;;;;;;;;;;4998781;28;20040;-62
2021/08/09 14:31:46;;;;;;;1.02;0.45;;;;;;;;;;4998178;28;20072;-64
2021/08/09 14:34:11;;;;;;;5.05;0.75;;;;;;;;;;4998714;28;20950;-64
2021/08/09 14:36:37;;;;;;;2.45;0.73;;;;;;;;;;4996220;28;20033;-63
2021/08/09 14:39:03;;;;;;;0.98;0.60;;;;;;;;;;4998154;28;20053;-62
2021/08/09 14:41:31;;;;;;;21.30;3.15;;;;;;;;;;4999130;28;20048;-58
2021/08/09 14:43:56;;;;;;;2.95;0.70;;;;;;;;;;4998447;28;20045;-59
2021/08/09 14:46:24;;;;;;;10.57;1.60;;;;;;;;;;5000075;28;20037;-61
2021/08/09 14:48:50;;;;;;;3.65;1.10;;;;;;;;;;4982664;28;20042;-59
2021/08/09 14:51:15;;;;;;;2.47;1.02;;;;;;;;;;4977440;28;20020;-57
2021/08/09 14:53:45;;;;;;;6.43;1.85;;;;;;;;;;4997642;28;20033;-58
2021/08/09 14:56:11;;;;;;;6.15;2.05;;;;;;;;;;4980804;28;20045;-58
2021/08/09 14:58:36;;;;;;;10.88;1.90;;;;;;;;;;4998711;28;20127;-59
2021/08/09 15:01:02;;;;;;;5.00;2.10;;;;;;;;;;4980152;28;20153;-58
2021/08/09 15:03:30;;;;;;;2.97;2.13;;;;;;;;;;4998091;28;20507;-59
2021/08/09 15:05:57;;;;;;;3.85;2.22;;;;;;;;;;4998281;28;20109;-59
2021/08/09 15:08:25;;;;;;;5.80;2.15;;;;;;;;;;4996608;28;20043;-58
2021/08/09 15:10:51;;;;;;;9.10;2.38;;;;;;;;;;4998429;28;22634;-60
2021/08/09 15:13:17;;;;;;;5.65;2.20;;;;;;;;;;4997606;28;20179;-59
2021/08/09 15:15:42;;;;;;;3.28;1.90;;;;;;;;;;4980508;28;20057;-59
2021/08/09 15:18:13;;;;;;;3.75;1.85;;;;;;;;;;4995508;28;20124;-60
2021/08/09 15:20:43;;;;;;;4.18;1.90;;;;;;;;;;4996357;28;20034;-60
2021/08/09 15:23:11;;;;;;;7.30;1.70;;;;;;;;;;4994590;28;20033;-60
2021/08/09 15:25:39;;;;;;;9.18;2.17;;;;;;;;;;4997700;28;20038;-60
2021/08/09 15:28:05;;;;;;;6.32;2.15;;;;;;;;;;4999233;28;20243;-59
2021/08/09 15:30:33;;;;;;;9.75;1.88;;;;;;;;;;4964033;28;20033;-59
2021/08/09 15:33:02;;;;;;;3.35;2.13;;;;;;;;;;4997405;28;20206;-59
2021/08/09 15:35:30;;;;;;;3.67;2.05;;;;;;;;;;4999645;28;20030;-58
2021/08/09 15:37:56;;;;;;;19.25;3.35;;;;;;;;;;4998980;28;20025;-59
2021/08/09 15:40:22;;;;;;;5.47;2.72;;;;;;;;;;4979790;28;20026;-59
2021/08/09 15:42:50;;;;;;;8.55;2.60;;;;;;;;;;4996636;28;20136;-59
2021/08/09 15:45:16;;;;;;;6.00;2.83;;;;;;;;;;4999994;28;20045;-58
2021/08/09 15:47:42;;;;;;;8.82;2.72;;;;;;;;;;4997927;28;20049;-59
2021/08/09 15:50:08;;;;;;;6.25;2.58;;;;;;;;;;4993470;28;20038;-59
2021/08/09 15:52:39;;;;;;;5.25;2.55;;;;;;;;;;4995931;28;20034;-58
2021/08/09 15:55:05;;;;;;;5.25;2.65;;;;;;;;;;4996725;28;21022;-59
2021/08/09 15:57:32;;;;;;;6.38;2.80;;;;;;;;;;4980262;28;20099;-59
2021/08/09 15:59:58;;;;;;;7.35;2.55;;;;;;;;;;4997299;28;20041;-60
2021/08/09 16:02:25;;;;;;;5.25;2.70;;;;;;;;;;4980276;28;20607;-59
2021/08/09 16:04:55;;;;;;;6.35;2.40;;;;;;;;;;4982394;28;20075;-59
2021/08/09 16:07:22;;;;;;;8.68;2.72;;;;;;;;;;4997853;28;20431;-60
2021/08/09 16:09:48;;;;;;;7.57;2.70;;;;;;;;;;4987104;28;20033;-60
2021/08/09 16:12:14;;;;;;;5.82;2.55;;;;;;;;;;4997827;28;20037;-59
2021/08/09 16:14:39;;;;;;;9.32;2.85;;;;;;;;;;4996628;28;20877;-61
2021/08/09 16:17:05;;;;;;;9.45;3.13;;;;;;;;;;4980701;28;20041;-60
2021/08/09 16:19:31;;;;;;;12.55;2.95;;;;;;;;;;4996896;28;20033;-59
2021/08/09 16:21:59;;;;;;;9.07;3.10;;;;;;;;;;4998001;28;20133;-61
2021/08/09 16:24:30;;;;;;;4.38;2.85;;;;;;;;;;4996425;28;20075;-60
2021/08/09 16:26:56;;;;;;;6.47;3.38;;;;;;;;;;4980259;28;20052;-60
2021/08/09 16:29:46;;;;;;;5.70;2.80;;;;;;;;;;4977533;28;20034;-61
2021/08/09 16:32:11;;;;;;;10.50;3.60;;;;;;;;;;4995757;28;20046;-60
2021/08/09 16:34:38;;;;;;;12.07;4.05;;;;;;;;;;4981395;28;21662;-61
2021/08/09 16:37:03;;;;;;;10.15;3.85;;;;;;;;;;4981349;28;20049;-62
2021/08/09 16:39:33;;;;;;;6.28;3.35;;;;;;;;;;4980964;28;20041;-61
2021/08/09 16:42:05;;;;;;;7.32;3.58;;;;;;;;;;4979184;28;20615;-61
2021/08/09 16:44:30;;;;;;;5.70;3.63;;;;;;;;;;4980185;28;20044;-61
2021/08/09 16:46:58;;;;;;;4.82;2.72;;;;;;;;;;4996895;28;20025;-61
2021/08/09 16:49:26;;;;;;;4.38;2.88;;;;;;;;;;4979457;28;20424;-62
2021/08/09 16:52:10;;;;;;;4.35;2.42;;;;;;;;;;4952906;28;20026;-62
2021/08/09 16:54:36;;;;;;;6.50;2.60;;;;;;;;;;4981035;28;20029;-62
2021/08/09 16:57:02;;;;;;;5.55;3.00;;;;;;;;;;4981150;28;20030;-62
2021/08/09 16:59:30;;;;;;;3.08;2.42;;;;;;;;;;4981203;28;20033;-61
2021/08/09 17:01:58;;;;;;;5.55;2.75;;;;;;;;;;4979904;28;20058;-62
2021/08/09 17:04:24;;;;;;;5.35;2.53;;;;;;;;;;4980625;28;20525;-63
2021/08/09 17:06:49;;;;;;;6.03;2.08;;;;;;;;;;4995610;28;20036;-63
2021/08/09 17:09:15;;;;;;;5.55;2.88;;;;;;;;;;4994172;28;20068;-63
2021/08/09 17:11:43;;;;;;;8.73;2.40;;;;;;;;;;4981963;28;20031;-62
2021/08/09 17:14:11;;;;;;;4.25;2.50;;;;;;;;;;4977331;28;20030;-63
2021/08/09 17:16:36;;;;;;;3.25;2.05;;;;;;;;;;4995295;28;21149;-63
2021/08/09 17:19:02;;;;;;;14.82;2.90;;;;;;;;;;4992829;28;20149;-61
2021/08/09 17:21:31;;;;;;;5.47;2.08;;;;;;;;;;4967475;28;20030;-61
2021/08/09 17:23:57;;;;;;;8.90;2.28;;;;;;;;;;4995431;28;20046;-60
2021/08/09 17:26:25;;;;;;;5.38;2.92;;;;;;;;;;4980557;28;20031;-60
2021/08/09 17:28:51;;;;;;;10.00;3.13;;;;;;;;;;4980834;28;20132;-61
2021/08/09 17:31:19;;;;;;;9.65;3.53;;;;;;;;;;4981214;28;20490;-61
2021/08/09 17:33:49;;;;;;;9.07;3.58;;;;;;;;;;4993413;28;20050;-61
2021/08/09 17:36:15;;;;;;;7.40;2.97;;;;;;;;;;4980630;28;20045;-63
2021/08/09 17:38:43;;;;;;;7.90;3.25;;;;;;;;;;4966309;28;21323;-62
2021/08/09 17:41:08;;;;;;;7.20;3.00;;;;;;;;;;4994106;28;20050;-61
2021/08/09 17:43:39;;;;;;;7.70;3.72;;;;;;;;;;4983685;28;20083;-61
2021/08/09 17:46:07;;;;;;;4.93;3.08;;;;;;;;;;4984220;28;20066;-61
2021/08/09 17:48:35;;;;;;;3.63;3.20;;;;;;;;;;4978571;28;20033;-61
2021/08/09 17:51:00;;;;;;;7.10;3.58;;;;;;;;;;4978481;28;20349;-61
2021/08/09 17:53:25;;;;;;;8.63;3.80;;;;;;;;;;4979370;28;20112;-61
2021/08/09 17:55:53;;;;;;;8.27;3.72;;;;;;;;;;4978900;28;20043;-61
2021/08/09 17:58:19;;;;;;;3.85;3.17;;;;;;;;;;4979688;28;20029;-61
2021/08/09 18:00:47;;;;;;;9.85;3.67;;;;;;;;;;4996204;28;20141;-61
2021/08/09 18:06:29;;;;;;;8.02;3.72;;;;;;;;;;4978806;28;20133;-62
2021/08/09 18:08:56;;;;;;;10.18;4.03;;;;;;;;;;4978150;28;20429;-60
2021/08/09 18:11:27;;;;;;;5.07;3.33;;;;;;;;;;4978331;28;20046;-61
2021/08/09 18:13:54;;;;;;;8.05;3.40;;;;;;;;;;4979873;28;20107;-62
2021/08/09 18:16:20;;;;;;;11.60;3.90;;;;;;;;;;4978148;28;20038;-62
2021/08/09 18:18:46;;;;;;;9.55;3.83;;;;;;;;;;4993291;28;20029;-61
2021/08/09 18:21:11;;;;;;;10.02;3.83;;;;;;;;;;4974948;28;20057;-61
2021/08/09 18:23:37;;;;;;;15.15;3.42;;;;;;;;;;4979206;28;20634;-61
2021/08/09 18:26:04;;;;;;;11.55;3.65;;;;;;;;;;4978402;28;20887;-62
2021/08/09 18:28:30;;;;;;;20.13;3.78;;;;;;;;;;4960705;28;20033;-62
2021/08/09 18:31:00;;;;;;;9.75;3.40;;;;;;;;;;4980773;28;20473;-62
2021/08/09 18:33:28;;;;;;;14.68;3.90;;;;;;;;;;4991029;28;20510;-61
2021/08/09 18:35:56;;;;;;;17.42;4.13;;;;;;;;;;4980100;28;20060;-61
2021/08/09 18:38:25;;;;;;;13.75;3.60;;;;;;;;;;4997310;28;20025;-62
2021/08/09 18:40:53;;;;;;;11.95;3.85;;;;;;;;;;4987075;28;20111;-62
2021/08/09 18:43:18;;;;;;;8.32;3.92;;;;;;;;;;4996556;28;20025;-62
2021/08/09 18:45:47;;;;;;;18.30;4.47;;;;;;;;;;4998364;28;20164;-63
2021/08/09 18:48:13;;;;;;;8.80;3.55;;;;;;;;;;4998255;28;20025;-63
2021/08/09 18:50:38;;;;;;;10.88;4.13;;;;;;;;;;4980205;28;20487;-63
2021/08/09 18:53:06;;;;;;;21.20;4.95;;;;;;;;;;4998309;28;20052;-63
2021/08/09 18:55:34;;;;;;;10.70;3.55;;;;;;;;;;4998170;28;20681;-62
2021/08/09 18:58:02;;;;;;;9.75;3.95;;;;;;;;;;4996782;28;20034;-62
2021/08/09 19:00:30;;;;;;;11.20;3.83;;;;;;;;;;4980986;28;20029;-63
2021/08/09 19:02:58;;;;;;;9.85;4.30;;;;;;;;;;4980762;28;20042;-63
2021/08/09 19:05:27;;;;;;;10.48;4.10;;;;;;;;;;4998049;28;20511;-63
2021/08/09 19:07:52;;;;;;;8.77;4.15;;;;;;;;;;4997352;28;20031;-62
2021/08/09 19:10:20;;;;;;;13.32;5.18;;;;;;;;;;4997579;28;20033;-63
2021/08/09 19:12:49;;;;;;;14.02;4.70;;;;;;;;;;4998205;28;21866;-63
2021/08/09 19:15:16;;;;;;;10.40;4.60;;;;;;;;;;4997567;28;20033;-63
2021/08/09 19:17:41;;;;;;;9.95;4.65;;;;;;;;;;4980220;28;20112;-63
2021/08/09 19:20:08;;;;;;;9.45;4.88;;;;;;;;;;4997757;28;22101;-63
2021/08/09 19:22:33;;;;;;;9.95;4.72;;;;;;;;;;4985123;28;20033;-63
2021/08/09 19:24:59;;;;;;;11.73;5.57;;;;;;;;;;4994838;28;22157;-62
2021/08/09 19:27:27;;;;;;;12.43;4.72;;;;;;;;;;4980666;28;20632;-62